sensor_id;sensor_type;location;lat;lon;timestamp;temperature;humidity
14031;DHT22;7090;49.436;8.490;2024-03-02T00:00:05;7.30;99.90
14031;DHT22;7090;49.436;8.490;2024-03-02T00:02:44;7.30;99.90
14031;DHT22;7090;49.436;8.490;2024-03-02T00:05:15;7.30;99.90
14031;DHT22;7090;49.436;8.490;2024-03-02T00:07:46;7.30;99.90
14031;DHT22;7090;49.436;8.490;2024-03-02T00:10:16;7.30;99.90
14031;DHT22;7090;49.436;8.490;2024-03-02T00:12:47;7.30;99.90
14031;DHT22;7090;49.436;8.490;2024-03-02T00:18:04;7.30;99.90
14031;DHT22;7090;49.436;8.490;2024-03-02T00:20:30;7.30;99.90
14031;DHT22;7090;49.436;8.490;2024-03-02T00:23:02;7.30;99.90
14031;DHT22;7090;49.436;8.490;2024-03-02T00:25:44;7.40;99.90
14031;DHT22;7090;49.436;8.490;2024-03-02T00:28:14;7.40;99.90
14031;DHT22;7090;49.436;8.490;2024-03-02T00:31:06;7.30;99.90
14031;DHT22;7090;49.436;8.490;2024-03-02T00:33:45;7.30;99.90
14031;DHT22;7090;49.436;8.490;2024-03-02T00:36:13;7.30;99.90
14031;DHT22;7090;49.436;8.490;2024-03-02T00:38:49;7.30;99.90
14031;DHT22;7090;49.436;8.490;2024-03-02T00:41:38;7.30;99.90
14031;DHT22;7090;49.436;8.490;2024-03-02T00:44:07;7.20;99.90
14031;DHT22;7090;49.436;8.490;2024-03-02T00:46:40;7.30;99.90
14031;DHT22;7090;49.436;8.490;2024-03-02T00:49:23;7.30;99.90
14031;DHT22;7090;49.436;8.490;2024-03-02T00:51:51;7.30;99.90
14031;DHT22;7090;49.436;8.490;2024-03-02T00:54:22;7.20;99.90
14031;DHT22;7090;49.436;8.490;2024-03-02T00:56:49;7.20;99.90
14031;DHT22;7090;49.436;8.490;2024-03-02T00:59:15;7.20;99.90
14031;DHT22;7090;49.436;8.490;2024-03-02T01:01:41;7.10;99.90
14031;DHT22;7090;49.436;8.490;2024-03-02T01:04:07;7.10;99.90
14031;DHT22;7090;49.436;8.490;2024-03-02T01:06:33;7.10;99.90
14031;DHT22;7090;49.436;8.490;2024-03-02T01:08:59;7.00;99.90
14031;DHT22;7090;49.436;8.490;2024-03-02T01:11:25;6.90;99.90
14031;DHT22;7090;49.436;8.490;2024-03-02T01:13:51;6.90;99.90
14031;DHT22;7090;49.436;8.490;2024-03-02T01:16:17;6.80;99.90
14031;DHT22;7090;49.436;8.490;2024-03-02T01:18:43;6.80;99.90
14031;DHT22;7090;49.436;8.490;2024-03-02T01:21:08;6.70;99.90
14031;DHT22;7090;49.436;8.490;2024-03-02T01:23:34;6.70;99.90
14031;DHT22;7090;49.436;8.490;2024-03-02T01:26:00;6.70;99.90
14031;DHT22;7090;49.436;8.490;2024-03-02T01:28:25;6.70;99.90
14031;DHT22;7090;49.436;8.490;2024-03-02T01:30:51;6.60;99.90
14031;DHT22;7090;49.436;8.490;2024-03-02T01:33:17;6.60;99.90
14031;DHT22;7090;49.436;8.490;2024-03-02T01:35:43;6.70;99.90
14031;DHT22;7090;49.436;8.490;2024-03-02T01:38:09;6.70;99.90
14031;DHT22;7090;49.436;8.490;2024-03-02T01:40:35;6.70;99.90
14031;DHT22;7090;49.436;8.490;2024-03-02T01:43:01;6.80;99.90
14031;DHT22;7090;49.436;8.490;2024-03-02T01:45:28;6.70;99.90
14031;DHT22;7090;49.436;8.490;2024-03-02T01:47:53;6.80;99.90
14031;DHT22;7090;49.436;8.490;2024-03-02T01:50:27;6.90;99.90
14031;DHT22;7090;49.436;8.490;2024-03-02T01:52:53;6.90;99.90
14031;DHT22;7090;49.436;8.490;2024-03-02T01:55:18;6.90;99.90
14031;DHT22;7090;49.436;8.490;2024-03-02T01:57:44;6.90;99.90
14031;DHT22;7090;49.436;8.490;2024-03-02T02:00:10;6.90;99.90
14031;DHT22;7090;49.436;8.490;2024-03-02T02:02:36;6.90;99.90
14031;DHT22;7090;49.436;8.490;2024-03-02T02:05:02;6.90;99.90
14031;DHT22;7090;49.436;8.490;2024-03-02T02:07:27;6.90;99.90
14031;DHT22;7090;49.436;8.490;2024-03-02T02:09:53;6.80;99.90
14031;DHT22;7090;49.436;8.490;2024-03-02T02:12:19;6.80;99.90
14031;DHT22;7090;49.436;8.490;2024-03-02T02:14:48;6.80;99.90
14031;DHT22;7090;49.436;8.490;2024-03-02T02:17:15;6.80;99.90
14031;DHT22;7090;49.436;8.490;2024-03-02T02:19:41;6.80;99.90
14031;DHT22;7090;49.436;8.490;2024-03-02T02:22:08;6.80;99.90
14031;DHT22;7090;49.436;8.490;2024-03-02T02:24:33;6.80;99.90
14031;DHT22;7090;49.436;8.490;2024-03-02T02:26:59;6.80;99.90
14031;DHT22;7090;49.436;8.490;2024-03-02T02:29:25;6.80;99.90
14031;DHT22;7090;49.436;8.490;2024-03-02T02:31:50;6.80;99.90
14031;DHT22;7090;49.436;8.490;2024-03-02T02:34:16;6.70;99.90
14031;DHT22;7090;49.436;8.490;2024-03-02T02:36:41;6.70;99.90
14031;DHT22;7090;49.436;8.490;2024-03-02T02:39:11;6.60;99.90
14031;DHT22;7090;49.436;8.490;2024-03-02T02:41:37;6.50;99.90
14031;DHT22;7090;49.436;8.490;2024-03-02T02:44:04;6.50;99.90
14031;DHT22;7090;49.436;8.490;2024-03-02T02:46:29;6.50;99.90
14031;DHT22;7090;49.436;8.490;2024-03-02T02:48:55;6.50;99.90
14031;DHT22;7090;49.436;8.490;2024-03-02T02:51:20;6.40;99.90
14031;DHT22;7090;49.436;8.490;2024-03-02T02:53:46;6.30;99.90
14031;DHT22;7090;49.436;8.490;2024-03-02T02:56:11;6.30;99.90
14031;DHT22;7090;49.436;8.490;2024-03-02T02:58:37;6.30;99.90
14031;DHT22;7090;49.436;8.490;2024-03-02T03:01:03;6.20;99.90
14031;DHT22;7090;49.436;8.490;2024-03-02T03:03:29;6.20;99.90
14031;DHT22;7090;49.436;8.490;2024-03-02T03:05:55;6.20;99.90
14031;DHT22;7090;49.436;8.490;2024-03-02T03:08:20;6.20;99.90
14031;DHT22;7090;49.436;8.490;2024-03-02T03:10:48;6.20;99.90
14031;DHT22;7090;49.436;8.490;2024-03-02T03:13:15;6.20;99.90
14031;DHT22;7090;49.436;8.490;2024-03-02T03:15:40;6.10;99.90
14031;DHT22;7090;49.436;8.490;2024-03-02T03:18:06;6.10;99.90
14031;DHT22;7090;49.436;8.490;2024-03-02T03:20:33;6.20;99.90
14031;DHT22;7090;49.436;8.490;2024-03-02T03:22:59;6.30;99.90
14031;DHT22;7090;49.436;8.490;2024-03-02T03:25:25;6.30;99.90
14031;DHT22;7090;49.436;8.490;2024-03-02T03:27:51;6.30;99.90
14031;DHT22;7090;49.436;8.490;2024-03-02T03:30:19;6.40;99.90
14031;DHT22;7090;49.436;8.490;2024-03-02T03:32:45;6.40;99.90
14031;DHT22;7090;49.436;8.490;2024-03-02T03:35:11;6.40;99.90
14031;DHT22;7090;49.436;8.490;2024-03-02T03:37:38;6.40;99.90
14031;DHT22;7090;49.436;8.490;2024-03-02T03:40:04;6.50;99.90
14031;DHT22;7090;49.436;8.490;2024-03-02T03:42:38;6.50;99.90
14031;DHT22;7090;49.436;8.490;2024-03-02T03:45:05;6.60;99.90
14031;DHT22;7090;49.436;8.490;2024-03-02T03:47:34;6.60;99.90
14031;DHT22;7090;49.436;8.490;2024-03-02T03:49:59;6.60;99.90
14031;DHT22;7090;49.436;8.490;2024-03-02T03:52:25;6.50;99.90
14031;DHT22;7090;49.436;8.490;2024-03-02T03:54:50;6.50;99.90
14031;DHT22;7090;49.436;8.490;2024-03-02T03:57:16;6.40;99.90
14031;DHT22;7090;49.436;8.490;2024-03-02T03:59:42;6.40;99.90
14031;DHT22;7090;49.436;8.490;2024-03-02T04:02:08;6.40;99.90
14031;DHT22;7090;49.436;8.490;2024-03-02T04:04:35;6.30;99.90
14031;DHT22;7090;49.436;8.490;2024-03-02T04:07:01;6.30;99.90
14031;DHT22;7090;49.436;8.490;2024-03-02T04:09:27;6.30;99.90
14031;DHT22;7090;49.436;8.490;2024-03-02T04:11:52;6.20;99.90
14031;DHT22;7090;49.436;8.490;2024-03-02T04:14:18;6.10;99.90
14031;DHT22;7090;49.436;8.490;2024-03-02T04:16:44;6.00;99.90
14031;DHT22;7090;49.436;8.490;2024-03-02T04:19:09;5.90;99.90
14031;DHT22;7090;49.436;8.490;2024-03-02T04:21:35;5.80;99.90
14031;DHT22;7090;49.436;8.490;2024-03-02T04:24:00;5.80;99.90
14031;DHT22;7090;49.436;8.490;2024-03-02T04:26:26;5.80;99.90
14031;DHT22;7090;49.436;8.490;2024-03-02T04:28:52;5.70;99.90
14031;DHT22;7090;49.436;8.490;2024-03-02T04:31:19;5.70;99.90
14031;DHT22;7090;49.436;8.490;2024-03-02T04:33:45;5.60;99.90
14031;DHT22;7090;49.436;8.490;2024-03-02T04:36:10;5.60;99.90
14031;DHT22;7090;49.436;8.490;2024-03-02T04:38:36;5.60;99.90
14031;DHT22;7090;49.436;8.490;2024-03-02T04:41:03;5.50;99.90
14031;DHT22;7090;49.436;8.490;2024-03-02T04:43:29;5.50;99.90
14031;DHT22;7090;49.436;8.490;2024-03-02T04:45:54;5.50;99.90
14031;DHT22;7090;49.436;8.490;2024-03-02T04:48:20;5.50;99.90
14031;DHT22;7090;49.436;8.490;2024-03-02T04:50:47;5.40;99.90
14031;DHT22;7090;49.436;8.490;2024-03-02T04:53:13;5.40;99.90
14031;DHT22;7090;49.436;8.490;2024-03-02T04:55:39;5.30;99.90
14031;DHT22;7090;49.436;8.490;2024-03-02T04:58:04;5.20;99.90
14031;DHT22;7090;49.436;8.490;2024-03-02T05:00:30;5.20;99.90
14031;DHT22;7090;49.436;8.490;2024-03-02T05:02:56;5.10;99.90
14031;DHT22;7090;49.436;8.490;2024-03-02T05:05:22;5.10;99.90
14031;DHT22;7090;49.436;8.490;2024-03-02T05:07:47;5.00;99.90
14031;DHT22;7090;49.436;8.490;2024-03-02T05:10:13;4.90;99.90
14031;DHT22;7090;49.436;8.490;2024-03-02T05:12:39;4.90;99.90
14031;DHT22;7090;49.436;8.490;2024-03-02T05:15:08;4.80;99.90
14031;DHT22;7090;49.436;8.490;2024-03-02T05:17:35;4.90;99.90
14031;DHT22;7090;49.436;8.490;2024-03-02T05:20:01;4.90;99.90
14031;DHT22;7090;49.436;8.490;2024-03-02T05:22:27;5.00;99.90
14031;DHT22;7090;49.436;8.490;2024-03-02T05:24:54;5.00;99.90
14031;DHT22;7090;49.436;8.490;2024-03-02T05:27:19;5.00;99.90
14031;DHT22;7090;49.436;8.490;2024-03-02T05:29:45;5.00;99.90
14031;DHT22;7090;49.436;8.490;2024-03-02T05:32:11;5.10;99.90
14031;DHT22;7090;49.436;8.490;2024-03-02T05:34:36;5.20;99.90
14031;DHT22;7090;49.436;8.490;2024-03-02T05:37:02;5.20;99.90
14031;DHT22;7090;49.436;8.490;2024-03-02T05:39:27;5.40;99.90
14031;DHT22;7090;49.436;8.490;2024-03-02T05:41:53;5.50;99.90
14031;DHT22;7090;49.436;8.490;2024-03-02T05:44:18;5.30;99.90
14031;DHT22;7090;49.436;8.490;2024-03-02T05:46:45;5.60;99.90
14031;DHT22;7090;49.436;8.490;2024-03-02T05:49:10;5.70;99.90
14031;DHT22;7090;49.436;8.490;2024-03-02T05:51:36;5.70;99.90
14031;DHT22;7090;49.436;8.490;2024-03-02T05:54:02;5.80;99.90
14031;DHT22;7090;49.436;8.490;2024-03-02T05:56:28;5.80;99.90
14031;DHT22;7090;49.436;8.490;2024-03-02T05:58:53;5.80;99.90
14031;DHT22;7090;49.436;8.490;2024-03-02T06:01:45;5.90;99.90
14031;DHT22;7090;49.436;8.490;2024-03-02T06:04:17;5.90;99.90
14031;DHT22;7090;49.436;8.490;2024-03-02T06:06:42;5.80;99.90
14031;DHT22;7090;49.436;8.490;2024-03-02T06:09:09;5.80;99.90
14031;DHT22;7090;49.436;8.490;2024-03-02T06:11:39;5.80;99.90
14031;DHT22;7090;49.436;8.490;2024-03-02T06:14:05;5.70;99.90
14031;DHT22;7090;49.436;8.490;2024-03-02T06:16:31;5.70;99.90
14031;DHT22;7090;49.436;8.490;2024-03-02T06:18:57;5.70;99.90
14031;DHT22;7090;49.436;8.490;2024-03-02T06:21:24;5.70;99.90
14031;DHT22;7090;49.436;8.490;2024-03-02T06:23:49;5.70;99.90
14031;DHT22;7090;49.436;8.490;2024-03-02T06:26:15;5.70;99.90
14031;DHT22;7090;49.436;8.490;2024-03-02T06:28:41;5.60;99.90
14031;DHT22;7090;49.436;8.490;2024-03-02T06:31:06;5.60;99.90
14031;DHT22;7090;49.436;8.490;2024-03-02T06:33:32;5.60;99.90
14031;DHT22;7090;49.436;8.490;2024-03-02T06:35:58;5.60;99.90
14031;DHT22;7090;49.436;8.490;2024-03-02T06:38:23;5.70;99.90
14031;DHT22;7090;49.436;8.490;2024-03-02T06:40:49;5.70;99.90
14031;DHT22;7090;49.436;8.490;2024-03-02T06:43:15;5.70;99.90
14031;DHT22;7090;49.436;8.490;2024-03-02T06:45:40;5.90;99.90
14031;DHT22;7090;49.436;8.490;2024-03-02T06:48:06;6.00;99.90
14031;DHT22;7090;49.436;8.490;2024-03-02T06:50:32;6.00;99.90
14031;DHT22;7090;49.436;8.490;2024-03-02T06:52:57;6.10;99.90
14031;DHT22;7090;49.436;8.490;2024-03-02T06:55:23;6.10;99.90
14031;DHT22;7090;49.436;8.490;2024-03-02T06:57:50;6.20;99.90
14031;DHT22;7090;49.436;8.490;2024-03-02T07:00:16;6.20;99.90
14031;DHT22;7090;49.436;8.490;2024-03-02T07:02:43;6.20;99.90
14031;DHT22;7090;49.436;8.490;2024-03-02T07:05:10;6.20;99.90
14031;DHT22;7090;49.436;8.490;2024-03-02T07:07:36;6.10;99.90
14031;DHT22;7090;49.436;8.490;2024-03-02T07:10:06;6.10;99.90
14031;DHT22;7090;49.436;8.490;2024-03-02T07:12:35;6.20;99.90
14031;DHT22;7090;49.436;8.490;2024-03-02T07:15:02;6.20;99.90
14031;DHT22;7090;49.436;8.490;2024-03-02T07:17:30;6.20;99.90
14031;DHT22;7090;49.436;8.490;2024-03-02T07:19:57;6.20;99.90
14031;DHT22;7090;49.436;8.490;2024-03-02T07:22:22;6.20;99.90
14031;DHT22;7090;49.436;8.490;2024-03-02T07:24:48;6.30;99.90
14031;DHT22;7090;49.436;8.490;2024-03-02T07:27:15;6.40;99.90
14031;DHT22;7090;49.436;8.490;2024-03-02T07:29:41;6.60;99.90
14031;DHT22;7090;49.436;8.490;2024-03-02T07:32:08;6.70;99.90
14031;DHT22;7090;49.436;8.490;2024-03-02T07:34:34;7.10;99.90
14031;DHT22;7090;49.436;8.490;2024-03-02T07:36:59;7.30;99.90
14031;DHT22;7090;49.436;8.490;2024-03-02T07:39:25;7.60;99.90
14031;DHT22;7090;49.436;8.490;2024-03-02T07:41:51;7.90;99.90
14031;DHT22;7090;49.436;8.490;2024-03-02T07:44:17;8.00;99.90
14031;DHT22;7090;49.436;8.490;2024-03-02T07:46:45;8.30;99.90
14031;DHT22;7090;49.436;8.490;2024-03-02T07:49:12;8.30;99.90
14031;DHT22;7090;49.436;8.490;2024-03-02T07:51:39;8.50;99.90
14031;DHT22;7090;49.436;8.490;2024-03-02T07:54:05;8.90;99.90
14031;DHT22;7090;49.436;8.490;2024-03-02T07:56:30;9.10;75.60
14031;DHT22;7090;49.436;8.490;2024-03-02T07:58:56;9.40;1.00
14031;DHT22;7090;49.436;8.490;2024-03-02T08:01:29;9.50;1.00
14031;DHT22;7090;49.436;8.490;2024-03-02T08:03:59;9.60;1.00
14031;DHT22;7090;49.436;8.490;2024-03-02T08:06:26;9.70;1.00
14031;DHT22;7090;49.436;8.490;2024-03-02T08:09:00;9.60;1.00
14031;DHT22;7090;49.436;8.490;2024-03-02T08:11:26;9.70;1.00
14031;DHT22;7090;49.436;8.490;2024-03-02T08:13:53;10.10;1.00
14031;DHT22;7090;49.436;8.490;2024-03-02T08:16:21;10.30;1.00
14031;DHT22;7090;49.436;8.490;2024-03-02T08:18:48;10.10;1.00
14031;DHT22;7090;49.436;8.490;2024-03-02T08:21:14;10.20;1.00
14031;DHT22;7090;49.436;8.490;2024-03-02T08:23:40;10.40;1.00
14031;DHT22;7090;49.436;8.490;2024-03-02T08:26:10;10.30;1.00
14031;DHT22;7090;49.436;8.490;2024-03-02T08:28:36;10.00;1.00
14031;DHT22;7090;49.436;8.490;2024-03-02T08:31:08;9.90;1.00
14031;DHT22;7090;49.436;8.490;2024-03-02T08:33:35;9.80;1.00
14031;DHT22;7090;49.436;8.490;2024-03-02T08:36:00;9.80;1.00
14031;DHT22;7090;49.436;8.490;2024-03-02T08:38:26;9.70;1.00
14031;DHT22;7090;49.436;8.490;2024-03-02T08:40:52;9.70;1.00
14031;DHT22;7090;49.436;8.490;2024-03-02T08:43:17;9.90;1.00
14031;DHT22;7090;49.436;8.490;2024-03-02T08:45:43;10.10;1.00
14031;DHT22;7090;49.436;8.490;2024-03-02T08:48:09;10.10;1.00
14031;DHT22;7090;49.436;8.490;2024-03-02T08:50:35;9.90;1.00
14031;DHT22;7090;49.436;8.490;2024-03-02T08:53:02;9.90;1.00
14031;DHT22;7090;49.436;8.490;2024-03-02T08:55:27;9.80;1.00
14031;DHT22;7090;49.436;8.490;2024-03-02T08:57:53;10.00;1.00
14031;DHT22;7090;49.436;8.490;2024-03-02T09:00:19;10.40;1.00
14031;DHT22;7090;49.436;8.490;2024-03-02T09:02:45;10.50;99.90
14031;DHT22;7090;49.436;8.490;2024-03-02T09:05:11;10.30;1.00
14031;DHT22;7090;49.436;8.490;2024-03-02T09:07:36;10.50;1.00
14031;DHT22;7090;49.436;8.490;2024-03-02T09:10:07;10.90;99.90
14031;DHT22;7090;49.436;8.490;2024-03-02T09:12:33;11.00;99.90
14031;DHT22;7090;49.436;8.490;2024-03-02T09:15:00;11.40;99.90
14031;DHT22;7090;49.436;8.490;2024-03-02T09:17:25;11.60;99.90
14031;DHT22;7090;49.436;8.490;2024-03-02T09:19:51;11.60;99.90
14031;DHT22;7090;49.436;8.490;2024-03-02T09:22:18;11.80;99.90
14031;DHT22;7090;49.436;8.490;2024-03-02T09:24:44;12.30;99.90
14031;DHT22;7090;49.436;8.490;2024-03-02T09:27:10;12.50;99.90
14031;DHT22;7090;49.436;8.490;2024-03-02T09:29:36;12.90;99.90
14031;DHT22;7090;49.436;8.490;2024-03-02T09:32:01;13.30;99.90
14031;DHT22;7090;49.436;8.490;2024-03-02T09:34:27;13.00;99.90
14031;DHT22;7090;49.436;8.490;2024-03-02T09:36:53;13.00;99.90
14031;DHT22;7090;49.436;8.490;2024-03-02T09:39:18;13.50;99.90
14031;DHT22;7090;49.436;8.490;2024-03-02T09:41:44;13.70;99.90
14031;DHT22;7090;49.436;8.490;2024-03-02T09:44:10;13.60;99.90
14031;DHT22;7090;49.436;8.490;2024-03-02T09:46:36;13.50;99.90
14031;DHT22;7090;49.436;8.490;2024-03-02T09:49:02;13.50;99.90
14031;DHT22;7090;49.436;8.490;2024-03-02T09:51:28;13.40;99.90
14031;DHT22;7090;49.436;8.490;2024-03-02T09:53:55;13.60;99.90
14031;DHT22;7090;49.436;8.490;2024-03-02T09:56:23;13.40;99.90
14031;DHT22;7090;49.436;8.490;2024-03-02T09:58:49;13.70;99.90
14031;DHT22;7090;49.436;8.490;2024-03-02T10:01:14;13.50;99.90
14031;DHT22;7090;49.436;8.490;2024-03-02T10:03:40;13.40;99.90
14031;DHT22;7090;49.436;8.490;2024-03-02T10:06:19;13.80;99.90
14031;DHT22;7090;49.436;8.490;2024-03-02T10:08:45;14.00;99.90
14031;DHT22;7090;49.436;8.490;2024-03-02T10:11:11;13.60;99.90
14031;DHT22;7090;49.436;8.490;2024-03-02T10:13:49;14.30;99.90
14031;DHT22;7090;49.436;8.490;2024-03-02T10:16:14;14.60;1.00
14031;DHT22;7090;49.436;8.490;2024-03-02T10:18:42;15.30;17.50
14031;DHT22;7090;49.436;8.490;2024-03-02T10:21:14;14.90;67.60
14031;DHT22;7090;49.436;8.490;2024-03-02T10:23:40;15.10;99.90
14031;DHT22;7090;49.436;8.490;2024-03-02T10:26:18;15.10;99.90
14031;DHT22;7090;49.436;8.490;2024-03-02T10:28:47;15.00;99.90
14031;DHT22;7090;49.436;8.490;2024-03-02T10:31:25;15.00;99.90
14031;DHT22;7090;49.436;8.490;2024-03-02T10:33:54;14.60;99.90
14031;DHT22;7090;49.436;8.490;2024-03-02T10:36:20;14.50;99.90
14031;DHT22;7090;49.436;8.490;2024-03-02T10:38:46;14.90;99.90
14031;DHT22;7090;49.436;8.490;2024-03-02T10:41:17;15.10;99.90
14031;DHT22;7090;49.436;8.490;2024-03-02T10:43:43;15.40;99.90
14031;DHT22;7090;49.436;8.490;2024-03-02T10:46:11;15.50;99.90
14031;DHT22;7090;49.436;8.490;2024-03-02T10:48:39;15.70;99.90
14031;DHT22;7090;49.436;8.490;2024-03-02T10:51:06;15.60;99.90
14031;DHT22;7090;49.436;8.490;2024-03-02T10:53:32;15.90;99.90
14031;DHT22;7090;49.436;8.490;2024-03-02T10:55:58;15.90;99.90
14031;DHT22;7090;49.436;8.490;2024-03-02T10:58:32;16.10;99.90
14031;DHT22;7090;49.436;8.490;2024-03-02T11:01:02;16.40;99.90
14031;DHT22;7090;49.436;8.490;2024-03-02T11:03:31;16.20;99.90
14031;DHT22;7090;49.436;8.490;2024-03-02T11:05:59;15.80;99.90
14031;DHT22;7090;49.436;8.490;2024-03-02T11:08:27;15.70;99.90
14031;DHT22;7090;49.436;8.490;2024-03-02T11:11:06;15.40;99.90
14031;DHT22;7090;49.436;8.490;2024-03-02T11:13:33;15.50;99.90
14031;DHT22;7090;49.436;8.490;2024-03-02T11:16:38;14.90;99.90
14031;DHT22;7090;49.436;8.490;2024-03-02T11:19:11;15.60;99.90
14031;DHT22;7090;49.436;8.490;2024-03-02T11:21:37;16.30;99.90
14031;DHT22;7090;49.436;8.490;2024-03-02T11:26:49;16.30;1.00
14031;DHT22;7090;49.436;8.490;2024-03-02T11:32:05;15.80;1.00
14031;DHT22;7090;49.436;8.490;2024-03-02T11:34:32;15.70;1.00
14031;DHT22;7090;49.436;8.490;2024-03-02T11:36:59;16.00;1.00
14031;DHT22;7090;49.436;8.490;2024-03-02T11:39:27;15.90;1.00
14031;DHT22;7090;49.436;8.490;2024-03-02T11:41:53;16.70;1.00
14031;DHT22;7090;49.436;8.490;2024-03-02T11:44:19;16.40;1.00
14031;DHT22;7090;49.436;8.490;2024-03-02T11:46:53;16.00;1.00
14031;DHT22;7090;49.436;8.490;2024-03-02T11:52:04;15.90;1.00
14031;DHT22;7090;49.436;8.490;2024-03-02T11:54:32;16.30;1.00
14031;DHT22;7090;49.436;8.490;2024-03-02T11:57:02;16.20;1.00
14031;DHT22;7090;49.436;8.490;2024-03-02T11:59:29;15.90;1.00
14031;DHT22;7090;49.436;8.490;2024-03-02T12:01:55;15.70;1.00
14031;DHT22;7090;49.436;8.490;2024-03-02T12:04:21;15.80;1.00
14031;DHT22;7090;49.436;8.490;2024-03-02T12:06:54;15.70;1.00
14031;DHT22;7090;49.436;8.490;2024-03-02T12:09:21;15.40;1.00
14031;DHT22;7090;49.436;8.490;2024-03-02T12:11:47;16.40;1.00
14031;DHT22;7090;49.436;8.490;2024-03-02T12:14:12;16.90;1.00
14031;DHT22;7090;49.436;8.490;2024-03-02T12:16:38;16.80;1.00
14031;DHT22;7090;49.436;8.490;2024-03-02T12:19:05;16.70;1.00
14031;DHT22;7090;49.436;8.490;2024-03-02T12:21:31;16.80;1.00
14031;DHT22;7090;49.436;8.490;2024-03-02T12:23:57;17.50;1.00
14031;DHT22;7090;49.436;8.490;2024-03-02T12:26:23;17.10;1.00
14031;DHT22;7090;49.436;8.490;2024-03-02T12:28:49;17.00;1.00
14031;DHT22;7090;49.436;8.490;2024-03-02T12:31:15;17.30;1.00
14031;DHT22;7090;49.436;8.490;2024-03-02T12:33:41;17.30;1.00
14031;DHT22;7090;49.436;8.490;2024-03-02T12:36:10;17.70;1.00
14031;DHT22;7090;49.436;8.490;2024-03-02T12:38:37;17.20;1.00
14031;DHT22;7090;49.436;8.490;2024-03-02T12:41:03;17.50;1.00
14031;DHT22;7090;49.436;8.490;2024-03-02T12:43:31;18.40;1.00
14031;DHT22;7090;49.436;8.490;2024-03-02T12:46:00;18.50;1.00
14031;DHT22;7090;49.436;8.490;2024-03-02T12:48:25;18.00;1.00
14031;DHT22;7090;49.436;8.490;2024-03-02T12:50:51;17.80;1.00
14031;DHT22;7090;49.436;8.490;2024-03-02T12:53:17;17.90;1.00
14031;DHT22;7090;49.436;8.490;2024-03-02T12:55:43;16.90;1.00
14031;DHT22;7090;49.436;8.490;2024-03-02T12:58:21;16.70;1.00
14031;DHT22;7090;49.436;8.490;2024-03-02T13:00:47;16.90;1.00
14031;DHT22;7090;49.436;8.490;2024-03-02T13:03:13;18.00;1.00
14031;DHT22;7090;49.436;8.490;2024-03-02T13:05:39;17.90;1.00
14031;DHT22;7090;49.436;8.490;2024-03-02T13:08:06;18.30;1.00
14031;DHT22;7090;49.436;8.490;2024-03-02T13:10:33;17.80;1.00
14031;DHT22;7090;49.436;8.490;2024-03-02T13:12:58;17.50;1.00
14031;DHT22;7090;49.436;8.490;2024-03-02T13:15:26;17.10;1.00
14031;DHT22;7090;49.436;8.490;2024-03-02T13:17:52;17.00;1.00
14031;DHT22;7090;49.436;8.490;2024-03-02T13:20:18;17.50;1.00
14031;DHT22;7090;49.436;8.490;2024-03-02T13:22:44;17.70;1.00
14031;DHT22;7090;49.436;8.490;2024-03-02T13:25:10;17.30;1.00
14031;DHT22;7090;49.436;8.490;2024-03-02T13:27:36;16.50;1.00
14031;DHT22;7090;49.436;8.490;2024-03-02T13:30:03;16.60;1.00
14031;DHT22;7090;49.436;8.490;2024-03-02T13:32:29;16.40;1.00
14031;DHT22;7090;49.436;8.490;2024-03-02T13:34:54;16.60;1.00
14031;DHT22;7090;49.436;8.490;2024-03-02T13:37:20;16.40;1.00
14031;DHT22;7090;49.436;8.490;2024-03-02T13:39:46;16.70;1.00
14031;DHT22;7090;49.436;8.490;2024-03-02T13:42:13;16.90;1.00
14031;DHT22;7090;49.436;8.490;2024-03-02T13:44:40;17.10;1.00
14031;DHT22;7090;49.436;8.490;2024-03-02T13:47:07;16.70;1.00
14031;DHT22;7090;49.436;8.490;2024-03-02T13:49:32;16.80;1.00
14031;DHT22;7090;49.436;8.490;2024-03-02T13:52:06;16.80;1.00
14031;DHT22;7090;49.436;8.490;2024-03-02T13:54:44;17.20;1.00
14031;DHT22;7090;49.436;8.490;2024-03-02T13:57:11;17.40;1.00
14031;DHT22;7090;49.436;8.490;2024-03-02T13:59:38;17.60;1.00
14031;DHT22;7090;49.436;8.490;2024-03-02T14:02:04;17.30;1.00
14031;DHT22;7090;49.436;8.490;2024-03-02T14:04:36;17.20;1.00
14031;DHT22;7090;49.436;8.490;2024-03-02T14:07:02;17.30;1.00
14031;DHT22;7090;49.436;8.490;2024-03-02T14:09:29;17.70;1.00
14031;DHT22;7090;49.436;8.490;2024-03-02T14:11:55;17.50;1.00
14031;DHT22;7090;49.436;8.490;2024-03-02T14:14:21;17.10;1.00
14031;DHT22;7090;49.436;8.490;2024-03-02T14:16:46;17.00;1.00
14031;DHT22;7090;49.436;8.490;2024-03-02T14:19:12;16.60;1.00
14031;DHT22;7090;49.436;8.490;2024-03-02T14:21:39;16.70;1.00
14031;DHT22;7090;49.436;8.490;2024-03-02T14:24:05;17.00;1.00
14031;DHT22;7090;49.436;8.490;2024-03-02T14:26:32;16.70;1.00
14031;DHT22;7090;49.436;8.490;2024-03-02T14:28:59;16.70;1.00
14031;DHT22;7090;49.436;8.490;2024-03-02T14:31:26;16.90;1.00
14031;DHT22;7090;49.436;8.490;2024-03-02T14:33:52;17.20;1.00
14031;DHT22;7090;49.436;8.490;2024-03-02T14:36:18;17.30;1.00
14031;DHT22;7090;49.436;8.490;2024-03-02T14:38:44;17.30;1.00
14031;DHT22;7090;49.436;8.490;2024-03-02T14:41:09;17.50;1.00
14031;DHT22;7090;49.436;8.490;2024-03-02T14:43:35;17.80;1.00
14031;DHT22;7090;49.436;8.490;2024-03-02T14:46:03;17.50;1.00
14031;DHT22;7090;49.436;8.490;2024-03-02T14:48:29;16.90;1.00
14031;DHT22;7090;49.436;8.490;2024-03-02T14:50:54;16.60;1.00
14031;DHT22;7090;49.436;8.490;2024-03-02T14:53:20;16.50;1.00
14031;DHT22;7090;49.436;8.490;2024-03-02T14:55:46;16.50;1.00
14031;DHT22;7090;49.436;8.490;2024-03-02T14:58:11;16.40;1.00
14031;DHT22;7090;49.436;8.490;2024-03-02T15:00:37;16.50;1.00
14031;DHT22;7090;49.436;8.490;2024-03-02T15:03:03;16.60;1.00
14031;DHT22;7090;49.436;8.490;2024-03-02T15:05:31;16.60;1.00
14031;DHT22;7090;49.436;8.490;2024-03-02T15:07:57;16.40;1.00
14031;DHT22;7090;49.436;8.490;2024-03-02T15:10:24;16.40;1.00
14031;DHT22;7090;49.436;8.490;2024-03-02T15:12:50;16.20;1.00
14031;DHT22;7090;49.436;8.490;2024-03-02T15:15:16;16.00;1.00
14031;DHT22;7090;49.436;8.490;2024-03-02T15:17:42;15.90;1.00
14031;DHT22;7090;49.436;8.490;2024-03-02T15:20:08;15.70;1.00
14031;DHT22;7090;49.436;8.490;2024-03-02T15:22:34;15.70;1.00
14031;DHT22;7090;49.436;8.490;2024-03-02T15:24:59;15.60;1.00
14031;DHT22;7090;49.436;8.490;2024-03-02T15:27:25;15.70;1.00
14031;DHT22;7090;49.436;8.490;2024-03-02T15:29:52;15.60;1.00
14031;DHT22;7090;49.436;8.490;2024-03-02T15:32:19;15.50;1.00
14031;DHT22;7090;49.436;8.490;2024-03-02T15:34:45;15.50;1.00
14031;DHT22;7090;49.436;8.490;2024-03-02T15:37:11;15.40;1.00
14031;DHT22;7090;49.436;8.490;2024-03-02T15:39:37;15.50;1.00
14031;DHT22;7090;49.436;8.490;2024-03-02T15:42:03;15.40;1.00
14031;DHT22;7090;49.436;8.490;2024-03-02T15:44:30;15.40;1.00
14031;DHT22;7090;49.436;8.490;2024-03-02T15:46:56;15.40;1.00
14031;DHT22;7090;49.436;8.490;2024-03-02T15:49:21;15.30;1.00
14031;DHT22;7090;49.436;8.490;2024-03-02T15:51:47;15.30;1.00
14031;DHT22;7090;49.436;8.490;2024-03-02T15:54:13;15.20;1.00
14031;DHT22;7090;49.436;8.490;2024-03-02T15:56:38;15.20;1.00
14031;DHT22;7090;49.436;8.490;2024-03-02T15:59:04;15.10;1.00
14031;DHT22;7090;49.436;8.490;2024-03-02T16:01:31;15.10;1.00
14031;DHT22;7090;49.436;8.490;2024-03-02T16:03:57;15.10;1.00
14031;DHT22;7090;49.436;8.490;2024-03-02T16:06:22;15.00;1.00
14031;DHT22;7090;49.436;8.490;2024-03-02T16:08:48;15.00;1.00